sensor_id;sensor_type;location;lat;lon;timestamp;P1;durP1;ratioP1;P2;durP2;ratioP2
54037;SDS011;39954;48.844;9.726;2023-02-18T00:00:37;18.20;;;6.72;;
54037;SDS011;39954;48.844;9.726;2023-02-18T00:01:45;23.23;;;7.80;;
54037;SDS011;39954;48.844;9.726;2023-02-18T00:02:47;22.15;;;7.53;;
54037;SDS011;39954;48.844;9.726;2023-02-18T00:03:53;16.73;;;6.60;;
54037;SDS011;39954;48.844;9.726;2023-02-18T00:04:55;16.48;;;6.15;;
54037;SDS011;39954;48.844;9.726;2023-02-18T00:05:59;16.48;;;6.43;;
54037;SDS011;39954;48.844;9.726;2023-02-18T00:07:01;17.42;;;7.15;;
54037;SDS011;39954;48.844;9.726;2023-02-18T00:08:06;17.60;;;6.70;;
54037;SDS011;39954;48.844;9.726;2023-02-18T00:09:09;16.85;;;6.45;;
54037;SDS011;39954;48.844;9.726;2023-02-18T00:10:14;19.75;;;7.47;;
54037;SDS011;39954;48.844;9.726;2023-02-18T00:11:17;12.40;;;4.53;;
54037;SDS011;39954;48.844;9.726;2023-02-18T00:12:23;14.20;;;6.10;;
54037;SDS011;39954;48.844;9.726;2023-02-18T00:13:25;15.15;;;6.20;;
54037;SDS011;39954;48.844;9.726;2023-02-18T00:14:31;15.68;;;6.20;;
54037;SDS011;39954;48.844;9.726;2023-02-18T00:15:35;18.38;;;7.68;;
54037;SDS011;39954;48.844;9.726;2023-02-18T00:16:38;18.50;;;7.55;;
54037;SDS011;39954;48.844;9.726;2023-02-18T00:17:46;18.02;;;6.78;;
54037;SDS011;39954;48.844;9.726;2023-02-18T00:18:48;19.85;;;7.95;;
54037;SDS011;39954;48.844;9.726;2023-02-18T00:19:53;17.42;;;6.72;;
54037;SDS011;39954;48.844;9.726;2023-02-18T00:20:58;12.13;;;4.47;;
54037;SDS011;39954;48.844;9.726;2023-02-18T00:22:02;16.25;;;6.28;;
54037;SDS011;39954;48.844;9.726;2023-02-18T00:23:04;16.10;;;6.00;;
54037;SDS011;39954;48.844;9.726;2023-02-18T00:24:10;14.43;;;5.57;;
54037;SDS011;39954;48.844;9.726;2023-02-18T00:25:15;13.10;;;5.40;;
54037;SDS011;39954;48.844;9.726;2023-02-18T00:26:20;11.80;;;5.05;;
54037;SDS011;39954;48.844;9.726;2023-02-18T00:27:23;9.25;;;3.58;;
54037;SDS011;39954;48.844;9.726;2023-02-18T00:28:28;11.35;;;5.03;;
54037;SDS011;39954;48.844;9.726;2023-02-18T00:29:30;5.53;;;2.90;;
54037;SDS011;39954;48.844;9.726;2023-02-18T00:30:38;16.15;;;5.82;;
54037;SDS011;39954;48.844;9.726;2023-02-18T00:31:41;18.60;;;6.65;;
54037;SDS011;39954;48.844;9.726;2023-02-18T00:32:48;12.40;;;4.68;;
54037;SDS011;39954;48.844;9.726;2023-02-18T00:33:50;21.20;;;7.80;;
54037;SDS011;39954;48.844;9.726;2023-02-18T00:34:55;10.20;;;4.28;;
54037;SDS011;39954;48.844;9.726;2023-02-18T00:36:00;10.57;;;4.53;;
54037;SDS011;39954;48.844;9.726;2023-02-18T00:37:06;17.17;;;7.03;;
54037;SDS011;39954;48.844;9.726;2023-02-18T00:38:11;13.73;;;5.25;;
54037;SDS011;39954;48.844;9.726;2023-02-18T00:39:13;13.18;;;5.43;;
54037;SDS011;39954;48.844;9.726;2023-02-18T00:40:18;12.02;;;5.22;;
54037;SDS011;39954;48.844;9.726;2023-02-18T00:41:20;9.38;;;4.15;;
54037;SDS011;39954;48.844;9.726;2023-02-18T00:42:27;14.45;;;5.88;;
54037;SDS011;39954;48.844;9.726;2023-02-18T00:43:29;14.70;;;6.00;;
54037;SDS011;39954;48.844;9.726;2023-02-18T00:44:34;10.05;;;3.85;;
54037;SDS011;39954;48.844;9.726;2023-02-18T00:45:36;9.70;;;3.80;;
54037;SDS011;39954;48.844;9.726;2023-02-18T00:46:41;17.95;;;6.60;;
54037;SDS011;39954;48.844;9.726;2023-02-18T00:47:43;9.07;;;3.97;;
54037;SDS011;39954;48.844;9.726;2023-02-18T00:48:50;16.63;;;5.75;;
54037;SDS011;39954;48.844;9.726;2023-02-18T00:49:52;10.10;;;4.47;;
54037;SDS011;39954;48.844;9.726;2023-02-18T00:50:57;9.27;;;3.78;;
54037;SDS011;39954;48.844;9.726;2023-02-18T00:52:01;9.40;;;4.15;;
54037;SDS011;39954;48.844;9.726;2023-02-18T00:53:05;15.68;;;5.07;;
54037;SDS011;39954;48.844;9.726;2023-02-18T00:54:08;18.58;;;7.07;;
54037;SDS011;39954;48.844;9.726;2023-02-18T00:55:12;15.15;;;5.28;;
54037;SDS011;39954;48.844;9.726;2023-02-18T00:56:15;13.55;;;5.45;;
54037;SDS011;39954;48.844;9.726;2023-02-18T00:57:20;13.90;;;5.40;;
54037;SDS011;39954;48.844;9.726;2023-02-18T00:58:22;10.43;;;4.53;;
54037;SDS011;39954;48.844;9.726;2023-02-18T00:59:26;13.48;;;4.80;;
54037;SDS011;39954;48.844;9.726;2023-02-18T01:00:31;10.38;;;4.28;;
54037;SDS011;39954;48.844;9.726;2023-02-18T01:01:33;11.85;;;5.05;;
54037;SDS011;39954;48.844;9.726;2023-02-18T01:02:38;13.48;;;4.93;;
54037;SDS011;39954;48.844;9.726;2023-02-18T01:03:41;17.35;;;7.00;;
54037;SDS011;39954;48.844;9.726;2023-02-18T01:04:49;12.77;;;5.35;;
54037;SDS011;39954;48.844;9.726;2023-02-18T01:05:51;10.05;;;4.18;;
54037;SDS011;39954;48.844;9.726;2023-02-18T01:06:57;16.15;;;6.47;;
54037;SDS011;39954;48.844;9.726;2023-02-18T01:07:59;10.77;;;4.18;;
54037;SDS011;39954;48.844;9.726;2023-02-18T01:09:04;11.68;;;4.88;;
54037;SDS011;39954;48.844;9.726;2023-02-18T01:10:06;11.15;;;4.68;;
54037;SDS011;39954;48.844;9.726;2023-02-18T01:11:12;14.10;;;5.82;;
54037;SDS011;39954;48.844;9.726;2023-02-18T01:12:14;15.25;;;5.70;;
54037;SDS011;39954;48.844;9.726;2023-02-18T01:13:19;14.18;;;5.47;;
54037;SDS011;39954;48.844;9.726;2023-02-18T01:14:22;6.60;;;2.72;;
54037;SDS011;39954;48.844;9.726;2023-02-18T01:15:27;16.52;;;6.63;;
54037;SDS011;39954;48.844;9.726;2023-02-18T01:16:29;9.82;;;4.68;;
54037;SDS011;39954;48.844;9.726;2023-02-18T01:17:34;12.50;;;4.85;;
54037;SDS011;39954;48.844;9.726;2023-02-18T01:18:36;11.85;;;4.07;;
54037;SDS011;39954;48.844;9.726;2023-02-18T01:19:41;16.45;;;6.60;;
54037;SDS011;39954;48.844;9.726;2023-02-18T01:20:47;17.80;;;6.47;;
54037;SDS011;39954;48.844;9.726;2023-02-18T01:21:51;15.85;;;6.07;;
54037;SDS011;39954;48.844;9.726;2023-02-18T01:22:54;17.52;;;6.65;;
54037;SDS011;39954;48.844;9.726;2023-02-18T01:23:58;7.65;;;3.55;;
54037;SDS011;39954;48.844;9.726;2023-02-18T01:25:00;8.80;;;4.05;;
54037;SDS011;39954;48.844;9.726;2023-02-18T01:26:05;8.75;;;3.88;;
54037;SDS011;39954;48.844;9.726;2023-02-18T01:27:08;6.00;;;2.60;;
54037;SDS011;39954;48.844;9.726;2023-02-18T01:28:13;16.55;;;6.53;;
54037;SDS011;39954;48.844;9.726;2023-02-18T01:29:16;11.60;;;5.35;;
54037;SDS011;39954;48.844;9.726;2023-02-18T01:30:20;8.65;;;3.50;;
54037;SDS011;39954;48.844;9.726;2023-02-18T01:31:23;11.20;;;5.03;;
54037;SDS011;39954;48.844;9.726;2023-02-18T01:32:28;14.65;;;5.43;;
54037;SDS011;39954;48.844;9.726;2023-02-18T01:33:30;16.00;;;6.40;;
54037;SDS011;39954;48.844;9.726;2023-02-18T01:34:35;13.20;;;5.65;;
54037;SDS011;39954;48.844;9.726;2023-02-18T01:35:37;14.00;;;5.85;;
54037;SDS011;39954;48.844;9.726;2023-02-18T01:36:45;14.95;;;6.28;;
54037;SDS011;39954;48.844;9.726;2023-02-18T01:37:47;11.07;;;4.53;;
54037;SDS011;39954;48.844;9.726;2023-02-18T01:38:52;14.55;;;6.05;;
54037;SDS011;39954;48.844;9.726;2023-02-18T01:39:54;18.15;;;7.20;;
54037;SDS011;39954;48.844;9.726;2023-02-18T01:40:59;13.95;;;5.70;;
54037;SDS011;39954;48.844;9.726;2023-02-18T01:42:01;12.93;;;5.10;;
54037;SDS011;39954;48.844;9.726;2023-02-18T01:43:05;12.45;;;4.93;;
54037;SDS011;39954;48.844;9.726;2023-02-18T01:44:11;10.65;;;4.75;;
54037;SDS011;39954;48.844;9.726;2023-02-18T01:45:34;13.10;;;5.68;;
54037;SDS011;39954;48.844;9.726;2023-02-18T01:46:52;15.43;;;6.13;;
54037;SDS011;39954;48.844;9.726;2023-02-18T01:47:57;8.95;;;4.03;;
54037;SDS011;39954;48.844;9.726;2023-02-18T01:49:00;11.98;;;5.15;;
54037;SDS011;39954;48.844;9.726;2023-02-18T01:50:05;15.88;;;6.20;;
54037;SDS011;39954;48.844;9.726;2023-02-18T01:51:09;6.20;;;3.13;;
54037;SDS011;39954;48.844;9.726;2023-02-18T01:52:20;9.73;;;4.30;;
54037;SDS011;39954;48.844;9.726;2023-02-18T01:53:27;16.45;;;7.32;;
54037;SDS011;39954;48.844;9.726;2023-02-18T01:54:38;11.13;;;4.85;;
54037;SDS011;39954;48.844;9.726;2023-02-18T01:55:43;13.90;;;6.25;;
54037;SDS011;39954;48.844;9.726;2023-02-18T01:56:50;15.13;;;6.50;;
54037;SDS011;39954;48.844;9.726;2023-02-18T01:57:58;12.80;;;5.15;;
54037;SDS011;39954;48.844;9.726;2023-02-18T01:59:02;11.35;;;4.97;;
54037;SDS011;39954;48.844;9.726;2023-02-18T02:00:11;13.25;;;5.25;;
54037;SDS011;39954;48.844;9.726;2023-02-18T02:01:17;10.98;;;4.68;;
54037;SDS011;39954;48.844;9.726;2023-02-18T02:02:24;6.65;;;3.08;;
54037;SDS011;39954;48.844;9.726;2023-02-18T02:03:29;10.85;;;4.57;;
54037;SDS011;39954;48.844;9.726;2023-02-18T02:04:34;11.18;;;4.90;;
54037;SDS011;39954;48.844;9.726;2023-02-18T02:05:36;12.50;;;5.32;;
54037;SDS011;39954;48.844;9.726;2023-02-18T02:06:41;10.38;;;4.63;;
54037;SDS011;39954;48.844;9.726;2023-02-18T02:07:47;13.75;;;5.93;;
54037;SDS011;39954;48.844;9.726;2023-02-18T02:09:59;11.32;;;4.75;;
54037;SDS011;39954;48.844;9.726;2023-02-18T02:11:06;15.88;;;5.65;;
54037;SDS011;39954;48.844;9.726;2023-02-18T02:12:31;10.95;;;5.18;;
54037;SDS011;39954;48.844;9.726;2023-02-18T02:13:49;14.93;;;6.00;;
54037;SDS011;39954;48.844;9.726;2023-02-18T02:15:05;14.65;;;5.82;;
54037;SDS011;39954;48.844;9.726;2023-02-18T02:17:32;17.73;;;6.55;;
54037;SDS011;39954;48.844;9.726;2023-02-18T02:18:46;19.67;;;7.95;;
54037;SDS011;39954;48.844;9.726;2023-02-18T02:20:16;19.40;;;7.18;;
54037;SDS011;39954;48.844;9.726;2023-02-18T02:21:51;13.70;;;5.82;;
54037;SDS011;39954;48.844;9.726;2023-02-18T02:23:24;15.60;;;6.18;;
54037;SDS011;39954;48.844;9.726;2023-02-18T02:24:47;22.92;;;8.45;;
54037;SDS011;39954;48.844;9.726;2023-02-18T02:31:07;23.92;;;8.63;;
54037;SDS011;39954;48.844;9.726;2023-02-18T02:34:26;11.80;;;4.65;;
54037;SDS011;39954;48.844;9.726;2023-02-18T02:35:33;17.42;;;6.47;;
54037;SDS011;39954;48.844;9.726;2023-02-18T02:36:42;9.27;;;4.18;;
54037;SDS011;39954;48.844;9.726;2023-02-18T02:37:52;18.83;;;7.30;;
54037;SDS011;39954;48.844;9.726;2023-02-18T02:39:06;15.32;;;5.88;;
54037;SDS011;39954;48.844;9.726;2023-02-18T02:40:17;16.98;;;6.85;;
54037;SDS011;39954;48.844;9.726;2023-02-18T02:41:36;13.55;;;5.63;;
54037;SDS011;39954;48.844;9.726;2023-02-18T02:42:46;16.35;;;6.30;;
54037;SDS011;39954;48.844;9.726;2023-02-18T02:45:05;15.00;;;5.93;;
54037;SDS011;39954;48.844;9.726;2023-02-18T02:46:16;15.00;;;5.60;;
54037;SDS011;39954;48.844;9.726;2023-02-18T02:47:25;13.63;;;6.00;;
54037;SDS011;39954;48.844;9.726;2023-02-18T02:48:36;18.17;;;6.88;;
54037;SDS011;39954;48.844;9.726;2023-02-18T02:49:52;21.42;;;8.70;;
54037;SDS011;39954;48.844;9.726;2023-02-18T02:51:03;6.70;;;2.63;;
54037;SDS011;39954;48.844;9.726;2023-02-18T02:52:11;15.15;;;6.47;;
54037;SDS011;39954;48.844;9.726;2023-02-18T02:53:19;14.73;;;6.30;;
54037;SDS011;39954;48.844;9.726;2023-02-18T02:54:28;14.50;;;5.88;;
54037;SDS011;39954;48.844;9.726;2023-02-18T02:55:30;18.27;;;6.90;;
54037;SDS011;39954;48.844;9.726;2023-02-18T02:56:35;19.40;;;7.35;;
54037;SDS011;39954;48.844;9.726;2023-02-18T02:57:41;16.80;;;6.78;;
54037;SDS011;39954;48.844;9.726;2023-02-18T02:58:54;18.60;;;6.40;;
54037;SDS011;39954;48.844;9.726;2023-02-18T03:00:01;21.05;;;6.35;;
54037;SDS011;39954;48.844;9.726;2023-02-18T03:01:17;17.40;;;6.03;;
54037;SDS011;39954;48.844;9.726;2023-02-18T03:02:29;16.33;;;6.35;;
54037;SDS011;39954;48.844;9.726;2023-02-18T03:03:43;17.05;;;6.28;;
54037;SDS011;39954;48.844;9.726;2023-02-18T03:05:08;15.52;;;6.38;;
54037;SDS011;39954;48.844;9.726;2023-02-18T03:06:30;16.63;;;6.10;;
54037;SDS011;39954;48.844;9.726;2023-02-18T03:08:02;25.95;;;10.10;;
54037;SDS011;39954;48.844;9.726;2023-02-18T03:09:16;12.85;;;5.32;;
54037;SDS011;39954;48.844;9.726;2023-02-18T03:11:57;18.70;;;7.38;;
54037;SDS011;39954;48.844;9.726;2023-02-18T03:13:08;16.92;;;6.65;;
54037;SDS011;39954;48.844;9.726;2023-02-18T03:14:21;18.52;;;7.38;;
54037;SDS011;39954;48.844;9.726;2023-02-18T03:15:33;16.02;;;5.70;;
54037;SDS011;39954;48.844;9.726;2023-02-18T03:16:44;15.27;;;5.95;;
54037;SDS011;39954;48.844;9.726;2023-02-18T03:17:51;21.20;;;7.80;;
54037;SDS011;39954;48.844;9.726;2023-02-18T03:19:04;13.15;;;5.47;;
54037;SDS011;39954;48.844;9.726;2023-02-18T03:20:14;8.82;;;3.60;;
54037;SDS011;39954;48.844;9.726;2023-02-18T03:21:28;9.43;;;4.03;;
54037;SDS011;39954;48.844;9.726;2023-02-18T03:22:33;17.70;;;6.78;;
54037;SDS011;39954;48.844;9.726;2023-02-18T03:23:43;17.05;;;6.75;;
54037;SDS011;39954;48.844;9.726;2023-02-18T03:24:50;20.00;;;7.95;;
54037;SDS011;39954;48.844;9.726;2023-02-18T03:25:57;15.70;;;5.38;;
54037;SDS011;39954;48.844;9.726;2023-02-18T03:27:03;23.98;;;8.07;;
54037;SDS011;39954;48.844;9.726;2023-02-18T03:28:11;12.35;;;5.10;;
54037;SDS011;39954;48.844;9.726;2023-02-18T03:29:17;12.13;;;4.72;;
54037;SDS011;39954;48.844;9.726;2023-02-18T03:30:25;14.30;;;5.68;;
54037;SDS011;39954;48.844;9.726;2023-02-18T03:31:30;9.43;;;4.00;;
54037;SDS011;39954;48.844;9.726;2023-02-18T03:32:40;11.73;;;4.68;;
54037;SDS011;39954;48.844;9.726;2023-02-18T03:33:47;20.55;;;8.13;;
54037;SDS011;39954;48.844;9.726;2023-02-18T03:34:55;18.33;;;7.22;;
54037;SDS011;39954;48.844;9.726;2023-02-18T03:36:04;22.00;;;7.47;;
54037;SDS011;39954;48.844;9.726;2023-02-18T03:37:10;16.73;;;6.38;;
54037;SDS011;39954;48.844;9.726;2023-02-18T03:38:15;15.30;;;6.20;;
54037;SDS011;39954;48.844;9.726;2023-02-18T03:39:25;16.45;;;5.70;;
54037;SDS011;39954;48.844;9.726;2023-02-18T03:40:30;12.50;;;5.00;;
54037;SDS011;39954;48.844;9.726;2023-02-18T03:41:35;19.15;;;7.47;;
54037;SDS011;39954;48.844;9.726;2023-02-18T03:42:37;32.28;;;11.25;;
54037;SDS011;39954;48.844;9.726;2023-02-18T03:43:47;19.85;;;7.13;;
54037;SDS011;39954;48.844;9.726;2023-02-18T03:44:50;29.42;;;9.95;;
54037;SDS011;39954;48.844;9.726;2023-02-18T03:45:55;23.02;;;7.40;;
54037;SDS011;39954;48.844;9.726;2023-02-18T03:46:57;29.40;;;9.43;;
54037;SDS011;39954;48.844;9.726;2023-02-18T03:48:02;27.63;;;8.60;;
54037;SDS011;39954;48.844;9.726;2023-02-18T03:49:05;17.27;;;5.97;;
54037;SDS011;39954;48.844;9.726;2023-02-18T03:50:09;13.00;;;5.15;;
54037;SDS011;39954;48.844;9.726;2023-02-18T03:51:14;21.38;;;7.60;;
54037;SDS011;39954;48.844;9.726;2023-02-18T03:52:20;8.27;;;3.33;;
54037;SDS011;39954;48.844;9.726;2023-02-18T03:53:22;24.40;;;8.38;;
54037;SDS011;39954;48.844;9.726;2023-02-18T03:54:26;14.95;;;5.45;;
54037;SDS011;39954;48.844;9.726;2023-02-18T03:55:28;13.45;;;5.03;;
54037;SDS011;39954;48.844;9.726;2023-02-18T03:56:33;22.55;;;7.38;;
54037;SDS011;39954;48.844;9.726;2023-02-18T03:57:36;15.50;;;5.47;;
54037;SDS011;39954;48.844;9.726;2023-02-18T03:58:41;18.00;;;6.32;;
54037;SDS011;39954;48.844;9.726;2023-02-18T03:59:44;26.80;;;9.30;;
54037;SDS011;39954;48.844;9.726;2023-02-18T04:00:49;29.58;;;9.73;;
54037;SDS011;39954;48.844;9.726;2023-02-18T04:01:52;28.95;;;8.80;;
54037;SDS011;39954;48.844;9.726;2023-02-18T04:02:57;60.40;;;18.13;;
54037;SDS011;39954;48.844;9.726;2023-02-18T04:03:59;27.08;;;7.90;;
54037;SDS011;39954;48.844;9.726;2023-02-18T04:05:05;24.83;;;7.70;;
54037;SDS011;39954;48.844;9.726;2023-02-18T04:06:07;32.08;;;10.10;;
54037;SDS011;39954;48.844;9.726;2023-02-18T04:07:15;19.60;;;5.95;;
54037;SDS011;39954;48.844;9.726;2023-02-18T04:08:18;17.50;;;5.75;;
54037;SDS011;39954;48.844;9.726;2023-02-18T04:09:24;18.40;;;6.38;;
54037;SDS011;39954;48.844;9.726;2023-02-18T04:10:26;6.43;;;2.10;;
54037;SDS011;39954;48.844;9.726;2023-02-18T04:11:31;10.95;;;3.92;;
54037;SDS011;39954;48.844;9.726;2023-02-18T04:12:33;24.10;;;7.68;;
54037;SDS011;39954;48.844;9.726;2023-02-18T04:13:38;14.93;;;5.38;;
54037;SDS011;39954;48.844;9.726;2023-02-18T04:14:40;18.75;;;5.95;;
54037;SDS011;39954;48.844;9.726;2023-02-18T04:15:47;28.33;;;9.02;;
54037;SDS011;39954;48.844;9.726;2023-02-18T04:16:52;26.90;;;8.45;;
54037;SDS011;39954;48.844;9.726;2023-02-18T04:17:54;26.15;;;7.32;;
54037;SDS011;39954;48.844;9.726;2023-02-18T04:19:00;31.83;;;6.90;;
54037;SDS011;39954;48.844;9.726;2023-02-18T04:20:02;43.50;;;9.63;;
54037;SDS011;39954;48.844;9.726;2023-02-18T04:21:08;22.55;;;5.78;;
54037;SDS011;39954;48.844;9.726;2023-02-18T04:22:10;22.63;;;5.90;;
54037;SDS011;39954;48.844;9.726;2023-02-18T04:23:17;20.45;;;5.65;;
54037;SDS011;39954;48.844;9.726;2023-02-18T04:24:19;22.55;;;5.75;;
54037;SDS011;39954;48.844;9.726;2023-02-18T04:25:30;23.35;;;6.18;;
54037;SDS011;39954;48.844;9.726;2023-02-18T04:26:33;32.40;;;8.35;;
54037;SDS011;39954;48.844;9.726;2023-02-18T04:27:38;21.50;;;5.85;;
54037;SDS011;39954;48.844;9.726;2023-02-18T04:28:43;27.30;;;6.68;;
54037;SDS011;39954;48.844;9.726;2023-02-18T04:29:47;32.85;;;8.30;;
54037;SDS011;39954;48.844;9.726;2023-02-18T04:30:53;30.88;;;9.07;;
54037;SDS011;39954;48.844;9.726;2023-02-18T04:31:55;27.40;;;8.30;;
54037;SDS011;39954;48.844;9.726;2023-02-18T04:33:00;30.20;;;8.25;;
54037;SDS011;39954;48.844;9.726;2023-02-18T04:34:03;32.35;;;8.38;;
54037;SDS011;39954;48.844;9.726;2023-02-18T04:35:08;27.33;;;6.75;;
54037;SDS011;39954;48.844;9.726;2023-02-18T04:36:10;32.10;;;7.55;;
54037;SDS011;39954;48.844;9.726;2023-02-18T04:37:16;22.25;;;6.45;;
54037;SDS011;39954;48.844;9.726;2023-02-18T04:38:23;27.77;;;7.65;;
54037;SDS011;39954;48.844;9.726;2023-02-18T04:39:25;28.83;;;7.10;;
54037;SDS011;39954;48.844;9.726;2023-02-18T04:40:30;36.67;;;8.73;;
54037;SDS011;39954;48.844;9.726;2023-02-18T04:41:33;28.48;;;7.32;;
54037;SDS011;39954;48.844;9.726;2023-02-18T04:42:38;28.90;;;6.80;;
54037;SDS011;39954;48.844;9.726;2023-02-18T04:43:41;32.03;;;7.47;;
54037;SDS011;39954;48.844;9.726;2023-02-18T04:44:45;34.33;;;7.65;;
54037;SDS011;39954;48.844;9.726;2023-02-18T04:45:48;42.55;;;8.18;;
54037;SDS011;39954;48.844;9.726;2023-02-18T04:46:56;44.20;;;9.30;;
54037;SDS011;39954;48.844;9.726;2023-02-18T04:47:59;43.28;;;8.73;;
54037;SDS011;39954;48.844;9.726;2023-02-18T04:49:04;44.03;;;10.00;;
54037;SDS011;39954;48.844;9.726;2023-02-18T04:50:07;35.97;;;7.25;;
54037;SDS011;39954;48.844;9.726;2023-02-18T04:51:13;29.02;;;6.25;;
54037;SDS011;39954;48.844;9.726;2023-02-18T04:52:15;32.55;;;6.75;;
54037;SDS011;39954;48.844;9.726;2023-02-18T04:53:24;30.70;;;6.22;;
54037;SDS011;39954;48.844;9.726;2023-02-18T04:54:27;30.83;;;6.22;;
54037;SDS011;39954;48.844;9.726;2023-02-18T04:55:32;29.80;;;5.90;;
54037;SDS011;39954;48.844;9.726;2023-02-18T04:56:34;36.15;;;6.78;;
54037;SDS011;39954;48.844;9.726;2023-02-18T04:57:39;29.17;;;6.40;;
54037;SDS011;39954;48.844;9.726;2023-02-18T04:58:41;36.85;;;7.15;;
54037;SDS011;39954;48.844;9.726;2023-02-18T04:59:46;36.80;;;6.68;;
54037;SDS011;39954;48.844;9.726;2023-02-18T05:00:49;41.33;;;6.75;;
54037;SDS011;39954;48.844;9.726;2023-02-18T05:01:54;44.35;;;7.40;;
54037;SDS011;39954;48.844;9.726;2023-02-18T05:02:58;55.90;;;8.73;;
54037;SDS011;39954;48.844;9.726;2023-02-18T05:04:05;52.75;;;8.85;;
54037;SDS011;39954;48.844;9.726;2023-02-18T05:05:08;32.63;;;6.22;;
54037;SDS011;39954;48.844;9.726;2023-02-18T05:06:15;39.70;;;6.75;;
54037;SDS011;39954;48.844;9.726;2023-02-18T05:07:17;40.58;;;6.90;;
54037;SDS011;39954;48.844;9.726;2023-02-18T05:08:31;40.17;;;6.15;;
54037;SDS011;39954;48.844;9.726;2023-02-18T05:09:33;53.10;;;8.40;;
54037;SDS011;39954;48.844;9.726;2023-02-18T05:10:38;33.65;;;6.45;;
54037;SDS011;39954;48.844;9.726;2023-02-18T05:11:40;50.55;;;8.30;;
54037;SDS011;39954;48.844;9.726;2023-02-18T05:12:45;25.52;;;4.70;;
54037;SDS011;39954;48.844;9.726;2023-02-18T05:13:48;51.58;;;9.07;;
54037;SDS011;39954;48.844;9.726;2023-02-18T05:14:53;46.53;;;8.85;;
54037;SDS011;39954;48.844;9.726;2023-02-18T05:15:55;51.00;;;10.90;;
54037;SDS011;39954;48.844;9.726;2023-02-18T05:17:00;48.88;;;11.45;;
54037;SDS011;39954;48.844;9.726;2023-02-18T05:18:02;29.60;;;7.38;;
54037;SDS011;39954;48.844;9.726;2023-02-18T05:19:08;27.58;;;7.25;;
54037;SDS011;39954;48.844;9.726;2023-02-18T05:20:11;25.67;;;6.85;;
54037;SDS011;39954;48.844;9.726;2023-02-18T05:21:19;17.75;;;4.97;;
54037;SDS011;39954;48.844;9.726;2023-02-18T05:22:21;17.42;;;5.35;;
54037;SDS011;39954;48.844;9.726;2023-02-18T05:23:29;22.80;;;6.20;;
54037;SDS011;39954;48.844;9.726;2023-02-18T05:24:31;17.17;;;5.45;;
54037;SDS011;39954;48.844;9.726;2023-02-18T05:25:36;21.15;;;5.95;;
54037;SDS011;39954;48.844;9.726;2023-02-18T05:26:38;23.98;;;7.43;;
54037;SDS011;39954;48.844;9.726;2023-02-18T05:27:43;21.25;;;5.55;;
54037;SDS011;39954;48.844;9.726;2023-02-18T05:28:45;16.10;;;4.53;;
54037;SDS011;39954;48.844;9.726;2023-02-18T05:29:50;25.65;;;7.85;;
54037;SDS011;39954;48.844;9.726;2023-02-18T05:30:52;20.10;;;6.20;;
54037;SDS011;39954;48.844;9.726;2023-02-18T05:31:57;23.77;;;7.28;;
54037;SDS011;39954;48.844;9.726;2023-02-18T05:32:59;25.80;;;7.38;;
54037;SDS011;39954;48.844;9.726;2023-02-18T05:34:04;21.88;;;7.22;;
54037;SDS011;39954;48.844;9.726;2023-02-18T05:35:07;21.77;;;7.22;;
54037;SDS011;39954;48.844;9.726;2023-02-18T05:36:12;20.58;;;6.72;;
54037;SDS011;39954;48.844;9.726;2023-02-18T05:37:14;18.17;;;5.97;;
54037;SDS011;39954;48.844;9.726;2023-02-18T05:38:19;52.38;;;14.75;;
54037;SDS011;39954;48.844;9.726;2023-02-18T05:39:24;19.63;;;5.65;;
54037;SDS011;39954;48.844;9.726;2023-02-18T05:40:29;18.20;;;5.63;;
54037;SDS011;39954;48.844;9.726;2023-02-18T05:41:32;21.70;;;6.45;;
54037;SDS011;39954;48.844;9.726;2023-02-18T05:42:37;24.48;;;7.53;;
54037;SDS011;39954;48.844;9.726;2023-02-18T05:43:39;25.60;;;7.43;;
54037;SDS011;39954;48.844;9.726;2023-02-18T05:44:56;27.30;;;8.45;;
54037;SDS011;39954;48.844;9.726;2023-02-18T05:46:01;21.75;;;7.13;;
54037;SDS011;39954;48.844;9.726;2023-02-18T05:47:04;19.67;;;6.55;;
54037;SDS011;39954;48.844;9.726;2023-02-18T05:48:12;8.18;;;2.75;;
54037;SDS011;39954;48.844;9.726;2023-02-18T05:49:15;20.15;;;6.80;;
54037;SDS011;39954;48.844;9.726;2023-02-18T05:50:20;21.75;;;7.10;;
54037;SDS011;39954;48.844;9.726;2023-02-18T05:51:22;14.98;;;5.43;;
54037;SDS011;39954;48.844;9.726;2023-02-18T05:52:29;12.68;;;4.35;;
54037;SDS011;39954;48.844;9.726;2023-02-18T05:53:31;14.95;;;5.22;;
54037;SDS011;39954;48.844;9.726;2023-02-18T05:54:39;11.48;;;3.30;;
54037;SDS011;39954;48.844;9.726;2023-02-18T05:55:42;18.92;;;6.30;;
54037;SDS011;39954;48.844;9.726;2023-02-18T05:56:46;15.82;;;5.25;;
54037;SDS011;39954;48.844;9.726;2023-02-18T05:57:48;13.80;;;5.18;;
54037;SDS011;39954;48.844;9.726;2023-02-18T05:58:54;17.40;;;6.13;;
54037;SDS011;39954;48.844;9.726;2023-02-18T05:59:56;18.58;;;6.43;;
54037;SDS011;39954;48.844;9.726;2023-02-18T06:01:04;19.13;;;6.75;;
54037;SDS011;39954;48.844;9.726;2023-02-18T06:02:07;19.08;;;6.70;;
54037;SDS011;39954;48.844;9.726;2023-02-18T06:03:13;14.48;;;5.00;;
54037;SDS011;39954;48.844;9.726;2023-02-18T06:04:15;15.07;;;5.35;;
54037;SDS011;39954;48.844;9.726;2023-02-18T06:05:22;16.08;;;5.32;;
54037;SDS011;39954;48.844;9.726;2023-02-18T06:06:27;13.88;;;4.88;;
54037;SDS011;39954;48.844;9.726;2023-02-18T06:07:32;15.18;;;5.45;;
54037;SDS011;39954;48.844;9.726;2023-02-18T06:08:38;18.70;;;6.75;;
54037;SDS011;39954;48.844;9.726;2023-02-18T06:09:42;14.30;;;5.45;;
54037;SDS011;39954;48.844;9.726;2023-02-18T06:10:48;16.58;;;6.13;;
54037;SDS011;39954;48.844;9.726;2023-02-18T06:11:50;17.88;;;6.43;;
54037;SDS011;39954;48.844;9.726;2023-02-18T06:12:55;11.88;;;4.22;;
54037;SDS011;39954;48.844;9.726;2023-02-18T06:13:57;24.42;;;8.65;;
54037;SDS011;39954;48.844;9.726;2023-02-18T06:15:02;20.13;;;6.88;;
54037;SDS011;39954;48.844;9.726;2023-02-18T06:16:06;16.90;;;6.32;;
54037;SDS011;39954;48.844;9.726;2023-02-18T06:17:11;14.88;;;5.88;;
54037;SDS011;39954;48.844;9.726;2023-02-18T06:18:19;15.18;;;6.22;;
54037;SDS011;39954;48.844;9.726;2023-02-18T06:19:21;14.80;;;5.78;;
54037;SDS011;39954;48.844;9.726;2023-02-18T06:20:26;19.00;;;7.32;;
54037;SDS011;39954;48.844;9.726;2023-02-18T06:21:33;15.38;;;6.03;;
54037;SDS011;39954;48.844;9.726;2023-02-18T06:22:40;9.90;;;4.22;;
54037;SDS011;39954;48.844;9.726;2023-02-18T06:23:42;16.80;;;6.30;;
54037;SDS011;39954;48.844;9.726;2023-02-18T06:24:50;15.73;;;5.13;;
54037;SDS011;39954;48.844;9.726;2023-02-18T06:25:55;13.60;;;5.32;;
54037;SDS011;39954;48.844;9.726;2023-02-18T06:26:57;17.23;;;7.00;;
54037;SDS011;39954;48.844;9.726;2023-02-18T06:28:02;18.58;;;7.13;;
54037;SDS011;39954;48.844;9.726;2023-02-18T06:29:06;14.68;;;5.85;;
54037;SDS011;39954;48.844;9.726;2023-02-18T06:30:11;20.15;;;6.97;;
54037;SDS011;39954;48.844;9.726;2023-02-18T06:31:13;13.73;;;4.95;;
54037;SDS011;39954;48.844;9.726;2023-02-18T06:32:19;16.45;;;5.72;;
54037;SDS011;39954;48.844;9.726;2023-02-18T06:33:21;11.55;;;4.53;;
54037;SDS011;39954;48.844;9.726;2023-02-18T06:34:26;18.63;;;6.57;;
54037;SDS011;39954;48.844;9.726;2023-02-18T06:35:29;16.38;;;5.40;;
54037;SDS011;39954;48.844;9.726;2023-02-18T06:36:37;15.63;;;5.53;;
54037;SDS011;39954;48.844;9.726;2023-02-18T06:37:41;18.92;;;6.32;;
54037;SDS011;39954;48.844;9.726;2023-02-18T06:38:46;14.55;;;5.70;;
54037;SDS011;39954;48.844;9.726;2023-02-18T06:39:51;17.08;;;5.95;;
54037;SDS011;39954;48.844;9.726;2023-02-18T06:40:56;18.98;;;6.40;;
54037;SDS011;39954;48.844;9.726;2023-02-18T06:41:58;24.88;;;8.38;;
54037;SDS011;39954;48.844;9.726;2023-02-18T06:43:03;23.98;;;8.10;;
54037;SDS011;39954;48.844;9.726;2023-02-18T06:44:05;20.77;;;7.53;;